Time;durP1;ratioP1;P1;durP2;ratioP2;P2;SDS_P1;SDS_P2;PMS_P1;PMS_P2;Temp;Humidity;BMP_temperature;BMP_pressure;BME280_temperature;BME280_humidity;BME280_pressure;Samples;Min_cycle;Max_cycle;Signal;HPM_P1;HPM_P2
2023/06/26 00:00:39;;;;;;;;;1.50;1.50;;;;;;;;5087185;27;45728;-68
2023/06/26 00:03:04;;;;;;;;;3.75;2.00;;;;;;;;5084320;27;46393;-67
2023/06/26 00:05:30;;;;;;;;;2.75;2.75;;;;;;;;5095481;27;45462;-68
2023/06/26 00:07:56;;;;;;;;;2.00;2.00;;;;;;;;5090902;27;45500;-68
2023/06/26 00:10:22;;;;;;;;;2.75;2.00;;;;;;;;5078254;27;45552;-68
2023/06/26 00:12:47;;;;;;;;;3.00;3.00;;;;;;;;5085194;27;45370;-68
2023/06/26 00:15:12;;;;;;;;;1.50;1.50;;;;;;;;5085440;27;45532;-68
2023/06/26 00:17:37;;;;;;;;;2.00;2.00;;;;;;;;5094316;27;45437;-68
2023/06/26 00:20:05;;;;;;;;;2.50;2.50;;;;;;;;5090121;27;45574;-68
2023/06/26 00:22:30;;;;;;;;;1.75;1.00;;;;;;;;5094417;27;46322;-68
2023/06/26 00:24:55;;;;;;;;;2.00;2.00;;;;;;;;5084510;27;45394;-68
2023/06/26 00:27:20;;;;;;;;;3.00;1.00;;;;;;;;5086088;27;45379;-67
2023/06/26 00:29:46;;;;;;;;;3.50;2.50;;;;;;;;5077473;27;45356;-68
2023/06/26 00:32:11;;;;;;;;;3.00;3.00;;;;;;;;5089932;27;47055;-68
2023/06/26 00:34:36;;;;;;;;;1.00;1.00;;;;;;;;5079969;27;45409;-68
2023/06/26 00:37:02;;;;;;;;;3.50;3.00;;;;;;;;5096938;27;45553;-69
2023/06/26 00:39:27;;;;;;;;;4.00;3.00;;;;;;;;5083477;27;45502;-68
2023/06/26 00:41:55;;;;;;;;;3.75;2.00;;;;;;;;5072917;27;46278;-68
2023/06/26 00:44:20;;;;;;;;;3.00;3.00;;;;;;;;5092652;27;45454;-68
2023/06/26 00:46:46;;;;;;;;;2.50;2.50;;;;;;;;5084672;27;45424;-67
2023/06/26 00:49:11;;;;;;;;;2.25;2.25;;;;;;;;5085619;27;45522;-68
2023/06/26 00:51:36;;;;;;;;;4.75;1.50;;;;;;;;5091741;27;46615;-67
2023/06/26 00:54:02;;;;;;;;;1.50;1.50;;;;;;;;5077779;27;45853;-68
2023/06/26 00:56:27;;;;;;;;;3.00;2.50;;;;;;;;5081745;27;45398;-68
2023/06/26 00:58:52;;;;;;;;;3.00;3.00;;;;;;;;5088202;27;45414;-67
2023/06/26 01:01:21;;;;;;;;;3.00;2.00;;;;;;;;5088835;27;47200;-68
2023/06/26 01:03:51;;;;;;;;;3.75;3.00;;;;;;;;5079948;27;45474;-68
2023/06/26 01:06:17;;;;;;;;;2.00;2.00;;;;;;;;5074855;28;45633;-67
2023/06/26 01:08:43;;;;;;;;;3.00;3.00;;;;;;;;5077689;28;45283;-67
2023/06/26 01:11:08;;;;;;;;;2.25;2.25;;;;;;;;5077378;28;46354;-68
2023/06/26 01:13:35;;;;;;;;;2.50;1.25;;;;;;;;5059472;28;45359;-68
2023/06/26 01:16:01;;;;;;;;;3.25;1.75;;;;;;;;5077878;28;45642;-69
2023/06/26 01:18:26;;;;;;;;;1.75;1.75;;;;;;;;5077636;27;45536;-68
2023/06/26 01:20:51;;;;;;;;;3.25;1.75;;;;;;;;5077431;28;46353;-69
2023/06/26 01:23:55;;;;;;;;;1.75;1.75;;;;;;;;5077277;27;45731;-69
2023/06/26 01:26:21;;;;;;;;;1.75;1.75;;;;;;;;4975808;28;45434;-69
2023/06/26 01:28:48;;;;;;;;;3.25;2.00;;;;;;;;4975516;28;45526;-69
2023/06/26 01:31:14;;;;;;;;;2.50;1.50;;;;;;;;4975315;28;45466;-68
2023/06/26 01:33:40;;;;;;;;;1.25;1.25;;;;;;;;4975294;28;45461;-69
2023/06/26 01:36:06;;;;;;;;;2.00;2.00;;;;;;;;4958752;28;45479;-69
2023/06/26 01:38:31;;;;;;;;;4.00;2.25;;;;;;;;4975219;28;45395;-69
2023/06/26 01:40:57;;;;;;;;;3.50;2.50;;;;;;;;4975444;28;46944;-68
2023/06/26 01:43:41;;;;;;;;;2.50;2.50;;;;;;;;4975025;28;45442;-69
2023/06/26 01:46:18;;;;;;;;;1.25;1.25;;;;;;;;4975515;28;45477;-68
2023/06/26 01:49:16;;;;;;;;;1.75;1.75;;;;;;;;4974756;28;45369;-68
2023/06/26 01:51:42;;;;;;;;;2.50;1.50;;;;;;;;4955663;28;45477;-68
2023/06/26 01:54:10;;;;;;;;;2.00;2.00;;;;;;;;4947121;28;45472;-68
2023/06/26 01:56:37;;;;;;;;;1.00;1.00;;;;;;;;4958654;28;45449;-68
2023/06/26 01:59:05;;;;;;;;;2.00;2.00;;;;;;;;5014689;28;45460;-68
2023/06/26 02:01:33;;;;;;;;;2.50;1.00;;;;;;;;5014335;28;46840;-68
2023/06/26 02:03:58;;;;;;;;;1.50;1.50;;;;;;;;5014218;28;45470;-67
2023/06/26 02:06:23;;;;;;;;;0.25;0.25;;;;;;;;5014656;28;45450;-68
2023/06/26 02:08:48;;;;;;;;;3.00;1.25;;;;;;;;5014397;28;45435;-69
2023/06/26 02:11:13;;;;;;;;;0.75;0.75;;;;;;;;5014354;28;45512;-69
2023/06/26 02:13:39;;;;;;;;;1.00;1.00;;;;;;;;5014254;28;45432;-68
2023/06/26 02:16:04;;;;;;;;;1.75;0.25;;;;;;;;5014373;28;45577;-68
2023/06/26 02:18:29;;;;;;;;;1.00;1.00;;;;;;;;5014364;28;45494;-69
2023/06/26 02:20:54;;;;;;;;;1.25;1.25;;;;;;;;5013893;28;46331;-69
2023/06/26 02:23:19;;;;;;;;;1.00;1.00;;;;;;;;5013545;28;45414;-68
2023/06/26 02:25:45;;;;;;;;;4.50;1.00;;;;;;;;5014126;28;45423;-69
2023/06/26 02:28:10;;;;;;;;;2.00;1.00;;;;;;;;5050519;28;45560;-69
2023/06/26 02:30:35;;;;;;;;;1.00;1.00;;;;;;;;5076707;27;45473;-69
2023/06/26 02:33:00;;;;;;;;;2.25;1.25;;;;;;;;5076490;27;45245;-68
2023/06/26 02:35:26;;;;;;;;;1.50;1.00;;;;;;;;5076586;28;45388;-68
2023/06/26 02:37:51;;;;;;;;;1.25;0.75;;;;;;;;5057881;28;45495;-68
2023/06/26 02:40:16;;;;;;;;;0.00;0.00;;;;;;;;5076412;28;45421;-69
2023/06/26 02:42:41;;;;;;;;;0.25;0.25;;;;;;;;5076114;28;45414;-69
2023/06/26 02:45:07;;;;;;;;;1.00;0.00;;;;;;;;5076426;27;45351;-68
2023/06/26 02:47:32;;;;;;;;;0.75;0.75;;;;;;;;5076398;28;45467;-67
2023/06/26 02:49:57;;;;;;;;;1.25;1.00;;;;;;;;5057705;28;45874;-68
2023/06/26 02:52:22;;;;;;;;;1.00;0.00;;;;;;;;5076132;27;45367;-69
2023/06/26 02:54:48;;;;;;;;;0.00;0.00;;;;;;;;5076298;27;45401;-68
2023/06/26 02:57:14;;;;;;;;;3.25;1.00;;;;;;;;5076455;27;45281;-68
2023/06/26 02:59:39;;;;;;;;;1.50;0.75;;;;;;;;5074970;27;46656;-69
2023/06/26 03:02:04;;;;;;;;;1.75;0.75;;;;;;;;5057596;28;45280;-68
2023/06/26 03:04:30;;;;;;;;;1.00;0.00;;;;;;;;5076116;28;45432;-68
2023/06/26 03:06:55;;;;;;;;;1.00;1.00;;;;;;;;5076140;27;45337;-69
2023/06/26 03:09:20;;;;;;;;;1.00;1.00;;;;;;;;5076042;28;46368;-69
2023/06/26 03:11:45;;;;;;;;;0.50;0.50;;;;;;;;5076157;27;45494;-69
2023/06/26 03:14:10;;;;;;;;;1.00;1.00;;;;;;;;5076017;28;45375;-69
2023/06/26 03:16:36;;;;;;;;;0.00;0.00;;;;;;;;5075733;28;45247;-69
2023/06/26 03:19:01;;;;;;;;;1.00;1.00;;;;;;;;5075755;28;45612;-68
2023/06/26 03:21:26;;;;;;;;;1.00;1.00;;;;;;;;5075401;28;45569;-69
2023/06/26 03:23:51;;;;;;;;;1.25;1.00;;;;;;;;5057447;28;45493;-69
2023/06/26 03:26:17;;;;;;;;;1.00;1.00;;;;;;;;5075969;28;45486;-69
2023/06/26 03:28:42;;;;;;;;;1.00;1.00;;;;;;;;5075400;28;45470;-69
2023/06/26 03:31:07;;;;;;;;;0.25;0.25;;;;;;;;5075896;28;45374;-69
2023/06/26 03:33:32;;;;;;;;;2.50;1.00;;;;;;;;5075880;28;45429;-68
2023/06/26 03:35:59;;;;;;;;;1.75;0.75;;;;;;;;5075412;27;45386;-69
2023/06/26 03:38:25;;;;;;;;;3.00;2.00;;;;;;;;5075266;28;45532;-68
2023/06/26 03:40:50;;;;;;;;;1.00;1.00;;;;;;;;5075410;28;45380;-68
2023/06/26 03:43:16;;;;;;;;;3.00;2.00;;;;;;;;5072849;28;45552;-68
2023/06/26 03:45:41;;;;;;;;;1.25;1.25;;;;;;;;5037084;28;45596;-69
2023/06/26 03:48:07;;;;;;;;;2.50;1.50;;;;;;;;5054676;28;45427;-68
2023/06/26 03:50:33;;;;;;;;;2.00;2.00;;;;;;;;5054753;28;45346;-68
2023/06/26 03:52:59;;;;;;;;;1.50;1.50;;;;;;;;5055275;28;45269;-68
2023/06/26 03:55:24;;;;;;;;;1.25;1.25;;;;;;;;5074096;28;45708;-68
2023/06/26 03:57:49;;;;;;;;;3.25;2.00;;;;;;;;5075414;28;46100;-69
2023/06/26 04:00:15;;;;;;;;;5.75;2.25;;;;;;;;5075476;28;45460;-69
2023/06/26 04:02:40;;;;;;;;;1.25;1.25;;;;;;;;5057205;28;45584;-69
2023/06/26 04:05:05;;;;;;;;;3.50;3.50;;;;;;;;5075076;28;45300;-69
2023/06/26 04:07:31;;;;;;;;;4.75;2.75;;;;;;;;5074986;28;45414;-69
2023/06/26 04:09:56;;;;;;;;;1.00;1.00;;;;;;;;5057112;28;45461;-69
2023/06/26 04:12:21;;;;;;;;;2.75;1.25;;;;;;;;5078737;28;45518;-69
2023/06/26 04:14:46;;;;;;;;;2.25;2.25;;;;;;;;5078715;28;45407;-69
2023/06/26 04:17:12;;;;;;;;;2.75;1.50;;;;;;;;5078335;28;46939;-69
2023/06/26 04:19:37;;;;;;;;;1.00;1.00;;;;;;;;5078031;28;45388;-68
2023/06/26 04:22:03;;;;;;;;;2.00;2.00;;;;;;;;5078525;27;45466;-69
2023/06/26 04:24:28;;;;;;;;;3.75;2.50;;;;;;;;5078409;28;45390;-69
2023/06/26 04:26:56;;;;;;;;;3.75;1.00;;;;;;;;5078246;27;45499;-69
2023/06/26 04:29:25;;;;;;;;;2.50;2.00;;;;;;;;5078239;28;45323;-69
2023/06/26 04:31:50;;;;;;;;;2.00;1.00;;;;;;;;5078763;27;45352;-69
2023/06/26 04:34:15;;;;;;;;;2.75;1.75;;;;;;;;5078006;28;45338;-69
2023/06/26 04:36:41;;;;;;;;;1.25;1.25;;;;;;;;5078136;28;45366;-69
2023/06/26 04:39:06;;;;;;;;;3.00;2.00;;;;;;;;5078350;28;45216;-68
2023/06/26 04:41:31;;;;;;;;;3.00;2.00;;;;;;;;5078421;28;45347;-69
2023/06/26 04:43:56;;;;;;;;;0.50;0.50;;;;;;;;5078104;28;45445;-68
2023/06/26 04:46:22;;;;;;;;;3.00;1.75;;;;;;;;5078082;28;45466;-69
2023/06/26 04:48:47;;;;;;;;;5.00;2.25;;;;;;;;5077564;27;45470;-69
2023/06/26 04:51:12;;;;;;;;;1.50;0.75;;;;;;;;5078232;27;45638;-69
2023/06/26 04:53:37;;;;;;;;;3.75;2.00;;;;;;;;5078194;28;45379;-69
2023/06/26 04:56:03;;;;;;;;;2.00;2.00;;;;;;;;5077994;27;45497;-69
2023/06/26 04:58:28;;;;;;;;;2.00;2.00;;;;;;;;5078027;27;45564;-68
2023/06/26 05:00:53;;;;;;;;;1.75;1.75;;;;;;;;5077903;27;45427;-69
2023/06/26 05:03:18;;;;;;;;;3.00;0.25;;;;;;;;5077819;28;45377;-68
2023/06/26 05:05:44;;;;;;;;;1.00;1.00;;;;;;;;5077817;28;45928;-69
2023/06/26 05:08:15;;;;;;;;;0.50;0.50;;;;;;;;5078013;27;45406;-69
2023/06/26 05:10:40;;;;;;;;;0.00;0.00;;;;;;;;5059666;28;45344;-69
2023/06/26 05:13:05;;;;;;;;;1.25;1.25;;;;;;;;5077606;28;45392;-69
2023/06/26 05:15:31;;;;;;;;;3.50;1.25;;;;;;;;5077744;28;45981;-69
2023/06/26 05:17:56;;;;;;;;;1.50;1.50;;;;;;;;5077553;27;45505;-69
2023/06/26 05:20:21;;;;;;;;;1.75;1.75;;;;;;;;5077629;28;45355;-69
2023/06/26 05:22:46;;;;;;;;;4.00;3.00;;;;;;;;5076714;28;45476;-68
2023/06/26 05:25:12;;;;;;;;;2.00;2.00;;;;;;;;5077598;28;46056;-68
2023/06/26 05:27:38;;;;;;;;;1.00;1.00;;;;;;;;5077567;28;45441;-69
2023/06/26 05:30:03;;;;;;;;;1.50;1.50;;;;;;;;5077238;27;45969;-68
2023/06/26 05:32:30;;;;;;;;;5.00;3.00;;;;;;;;5077281;28;45415;-68
2023/06/26 05:34:56;;;;;;;;;2.00;2.00;;;;;;;;5077198;27;46958;-68
2023/06/26 05:37:22;;;;;;;;;4.00;3.00;;;;;;;;5077074;28;45419;-69
2023/06/26 05:39:47;;;;;;;;;0.00;0.00;;;;;;;;5077439;28;45386;-69
2023/06/26 05:42:13;;;;;;;;;2.75;2.75;;;;;;;;5057939;28;45740;-68
2023/06/26 05:44:38;;;;;;;;;4.00;3.00;;;;;;;;5057847;28;45910;-69
2023/06/26 05:47:03;;;;;;;;;3.00;3.00;;;;;;;;5077182;28;45268;-68
2023/06/26 05:49:28;;;;;;;;;2.75;2.00;;;;;;;;5077224;28;45359;-68
2023/06/26 05:51:54;;;;;;;;;5.50;5.00;;;;;;;;5077360;28;45223;-68
2023/06/26 05:54:19;;;;;;;;;3.00;1.75;;;;;;;;5058797;28;47007;-70
2023/06/26 05:56:45;;;;;;;;;4.00;4.00;;;;;;;;5077211;28;45388;-70
2023/06/26 05:59:10;;;;;;;;;3.00;2.00;;;;;;;;5077131;28;45378;-70
2023/06/26 06:01:36;;;;;;;;;2.50;2.50;;;;;;;;5077089;28;45433;-70
2023/06/26 06:04:01;;;;;;;;;4.75;3.75;;;;;;;;5076597;28;47074;-70
2023/06/26 06:06:26;;;;;;;;;4.00;3.25;;;;;;;;5077060;27;45560;-70
2023/06/26 06:08:52;;;;;;;;;6.50;5.25;;;;;;;;5076959;27;45276;-70
2023/06/26 06:11:17;;;;;;;;;5.25;4.25;;;;;;;;5058383;28;45367;-69
2023/06/26 06:13:42;;;;;;;;;5.75;4.00;;;;;;;;5075958;28;47339;-69
2023/06/26 06:16:07;;;;;;;;;3.00;3.00;;;;;;;;5076012;28;45439;-71
2023/06/26 06:18:33;;;;;;;;;3.00;3.00;;;;;;;;5076662;27;45425;-71
2023/06/26 06:20:58;;;;;;;;;1.00;1.00;;;;;;;;5075964;28;45386;-69
2023/06/26 06:23:23;;;;;;;;;4.00;2.75;;;;;;;;5075890;28;46486;-69
2023/06/26 06:25:48;;;;;;;;;3.25;2.00;;;;;;;;5075986;28;45336;-69
2023/06/26 06:28:16;;;;;;;;;2.00;2.00;;;;;;;;5076186;27;45334;-69
2023/06/26 06:30:41;;;;;;;;;4.25;3.25;;;;;;;;5076542;28;45384;-69
2023/06/26 06:33:06;;;;;;;;;2.50;2.50;;;;;;;;5075740;28;46343;-69
2023/06/26 06:35:31;;;;;;;;;2.25;2.25;;;;;;;;5076320;28;45353;-69
2023/06/26 06:37:56;;;;;;;;;4.75;3.50;;;;;;;;5075956;28;45392;-69
2023/06/26 06:40:22;;;;;;;;;2.75;2.00;;;;;;;;5058318;28;45346;-68
2023/06/26 06:42:47;;;;;;;;;3.50;3.50;;;;;;;;5057487;28;47372;-69
2023/06/26 06:45:12;;;;;;;;;4.25;3.75;;;;;;;;5076063;28;45269;-69
2023/06/26 06:47:38;;;;;;;;;4.00;4.00;;;;;;;;5075668;28;45283;-70
2023/06/26 06:50:07;;;;;;;;;6.00;4.50;;;;;;;;5075522;28;45436;-69
2023/06/26 06:52:42;;;;;;;;;2.25;2.25;;;;;;;;5057424;28;47814;-69
2023/06/26 06:55:10;;;;;;;;;5.00;3.00;;;;;;;;5075782;28;45489;-68
2023/06/26 06:57:37;;;;;;;;;2.50;2.50;;;;;;;;5075753;28;45355;-69
2023/06/26 07:00:10;;;;;;;;;2.25;2.25;;;;;;;;5075678;28;45593;-69
2023/06/26 07:02:39;;;;;;;;;4.00;4.00;;;;;;;;5075599;28;46579;-69
2023/06/26 07:05:04;;;;;;;;;4.00;3.00;;;;;;;;5075453;28;45273;-69
2023/06/26 07:07:33;;;;;;;;;3.25;2.50;;;;;;;;5075799;28;45566;-69
2023/06/26 07:09:59;;;;;;;;;2.50;2.50;;;;;;;;5076161;28;45531;-69
2023/06/26 07:12:25;;;;;;;;;2.25;2.25;;;;;;;;5069541;27;45549;-70
2023/06/26 07:14:50;;;;;;;;;4.00;4.00;;;;;;;;5054081;28;45347;-68
2023/06/26 07:17:15;;;;;;;;;3.75;1.00;;;;;;;;5037253;28;45474;-69
2023/06/26 07:19:40;;;;;;;;;3.00;3.00;;;;;;;;5055324;28;45447;-68
2023/06/26 07:22:05;;;;;;;;;3.25;3.25;;;;;;;;5055191;28;45391;-69
2023/06/26 07:24:32;;;;;;;;;4.00;3.25;;;;;;;;5054976;28;45566;-69
2023/06/26 07:26:57;;;;;;;;;3.00;3.00;;;;;;;;5063242;28;45393;-68
2023/06/26 07:29:22;;;;;;;;;3.00;3.00;;;;;;;;5075323;28;45523;-68
2023/06/26 07:31:47;;;;;;;;;1.00;1.00;;;;;;;;5057277;28;47250;-69
2023/06/26 07:34:13;;;;;;;;;3.00;2.50;;;;;;;;5075356;28;45442;-69
2023/06/26 07:36:38;;;;;;;;;3.00;3.00;;;;;;;;5069054;28;45727;-69
2023/06/26 07:39:03;;;;;;;;;3.00;2.00;;;;;;;;5059668;28;45327;-68
2023/06/26 07:41:31;;;;;;;;;3.50;3.00;;;;;;;;5054744;28;45457;-70
2023/06/26 07:43:56;;;;;;;;;2.00;2.00;;;;;;;;5074263;28;45565;-69
2023/06/26 07:46:21;;;;;;;;;3.50;2.00;;;;;;;;5067787;27;45455;-69
2023/06/26 07:48:46;;;;;;;;;2.50;2.50;;;;;;;;5076167;27;45629;-68
2023/06/26 07:51:12;;;;;;;;;5.50;3.25;;;;;;;;5072671;27;45880;-69
2023/06/26 07:53:37;;;;;;;;;2.00;1.00;;;;;;;;5075122;28;45498;-68
2023/06/26 07:56:02;;;;;;;;;2.50;2.50;;;;;;;;5056360;28;45496;-68
2023/06/26 07:58:27;;;;;;;;;3.00;2.00;;;;;;;;5074678;28;45374;-68
2023/06/26 08:00:52;;;;;;;;;1.50;1.00;;;;;;;;5074727;28;45411;-68
2023/06/26 08:03:18;;;;;;;;;3.50;2.50;;;;;;;;5074750;28;45447;-68
2023/06/26 08:05:43;;;;;;;;;1.25;1.25;;;;;;;;5075050;28;45418;-67
2023/06/26 08:08:08;;;;;;;;;1.75;1.75;;;;;;;;5075483;28;45463;-67
2023/06/26 08:10:34;;;;;;;;;1.75;1.00;;;;;;;;5074674;28;46134;-68
2023/06/26 08:12:59;;;;;;;;;2.50;2.50;;;;;;;;5073722;28;45783;-67
2023/06/26 08:15:25;;;;;;;;;1.25;1.00;;;;;;;;5074189;27;45684;-68
2023/06/26 08:17:50;;;;;;;;;2.00;2.00;;;;;;;;5072957;28;45403;-68
2023/06/26 08:20:15;;;;;;;;;1.25;1.25;;;;;;;;5074487;28;45506;-67
2023/06/26 08:22:41;;;;;;;;;4.50;2.00;;;;;;;;5074576;28;45509;-67
2023/06/26 08:25:06;;;;;;;;;2.25;2.00;;;;;;;;5073313;28;45393;-67
2023/06/26 08:27:31;;;;;;;;;3.00;2.00;;;;;;;;5070491;28;45498;-69
2023/06/26 08:29:57;;;;;;;;;1.00;1.00;;;;;;;;5073326;27;45984;-69
2023/06/26 08:32:22;;;;;;;;;1.25;1.25;;;;;;;;5082008;27;46228;-69
2023/06/26 08:34:47;;;;;;;;;1.00;1.00;;;;;;;;5075734;27;45464;-68
2023/06/26 08:37:12;;;;;;;;;1.25;1.25;;;;;;;;5077750;27;45429;-68
2023/06/26 08:39:38;;;;;;;;;2.00;2.00;;;;;;;;5102401;27;45696;-68
2023/06/26 08:42:03;;;;;;;;;2.00;1.00;;;;;;;;5080910;27;45340;-68
2023/06/26 08:44:28;;;;;;;;;4.00;3.00;;;;;;;;5088485;27;45316;-68
2023/06/26 08:46:53;;;;;;;;;1.75;1.75;;;;;;;;5076392;27;45483;-68
2023/06/26 08:49:26;;;;;;;;;2.50;2.25;;;;;;;;5088837;27;46879;-68
2023/06/26 08:51:55;;;;;;;;;1.75;1.75;;;;;;;;5083266;27;45523;-68
2023/06/26 08:54:28;;;;;;;;;1.50;1.50;;;;;;;;5080668;27;45414;-68
2023/06/26 08:56:53;;;;;;;;;2.00;1.25;;;;;;;;5090514;27;45393;-69
2023/06/26 08:59:19;;;;;;;;;3.00;1.75;;;;;;;;5081184;27;45398;-68
2023/06/26 09:01:45;;;;;;;;;2.75;1.00;;;;;;;;5089129;27;45387;-68
2023/06/26 09:04:10;;;;;;;;;3.00;1.75;;;;;;;;5088663;27;45417;-68
2023/06/26 09:06:35;;;;;;;;;2.50;1.00;;;;;;;;5081813;27;45453;-68
2023/06/26 09:09:01;;;;;;;;;1.00;1.00;;;;;;;;5088125;27;46223;-68
2023/06/26 09:11:26;;;;;;;;;1.00;1.00;;;;;;;;5076714;27;45394;-69
2023/06/26 09:13:51;;;;;;;;;4.25;1.00;;;;;;;;5067618;27;45419;-69
2023/06/26 09:16:17;;;;;;;;;2.00;2.00;;;;;;;;5066062;28;45613;-69
2023/06/26 09:18:44;;;;;;;;;2.75;2.00;;;;;;;;5092598;27;46043;-68
2023/06/26 09:21:11;;;;;;;;;2.00;0.00;;;;;;;;5079063;27;45433;-68
2023/06/26 09:23:36;;;;;;;;;0.00;0.00;;;;;;;;5089743;27;45562;-68
2023/06/26 09:26:05;;;;;;;;;0.50;0.00;;;;;;;;5086730;27;45406;-69
2023/06/26 09:28:31;;;;;;;;;2.00;1.00;;;;;;;;5082187;27;46032;-69
2023/06/26 09:31:00;;;;;;;;;2.75;1.25;;;;;;;;5093199;27;45448;-68
2023/06/26 09:33:25;;;;;;;;;2.00;2.00;;;;;;;;5081991;27;45469;-69
2023/06/26 09:35:50;;;;;;;;;2.00;2.00;;;;;;;;5087861;27;45422;-68
2023/06/26 09:38:17;;;;;;;;;1.00;1.00;;;;;;;;5076148;28;45523;-69
2023/06/26 09:40:43;;;;;;;;;2.75;1.50;;;;;;;;5093187;27;45456;-68
2023/06/26 09:43:09;;;;;;;;;1.75;1.75;;;;;;;;5079769;27;45193;-68
2023/06/26 09:45:36;;;;;;;;;0.75;0.75;;;;;;;;5090400;27;45331;-68
2023/06/26 09:48:02;;;;;;;;;0.00;0.00;;;;;;;;5086672;27;45566;-68
2023/06/26 09:50:28;;;;;;;;;2.00;0.75;;;;;;;;5082219;27;45446;-69
2023/06/26 09:52:53;;;;;;;;;1.25;1.00;;;;;;;;5093106;27;45466;-68
2023/06/26 09:55:19;;;;;;;;;2.00;1.00;;;;;;;;5081242;27;45494;-68
2023/06/26 09:57:45;;;;;;;;;1.00;1.00;;;;;;;;5088741;27;45449;-67
2023/06/26 10:00:12;;;;;;;;;0.50;0.25;;;;;;;;5088245;27;45343;-67
2023/06/26 10:02:37;;;;;;;;;0.00;0.00;;;;;;;;5081274;27;45484;-68
2023/06/26 10:05:03;;;;;;;;;1.00;1.00;;;;;;;;5093091;27;45323;-68
2023/06/26 10:07:28;;;;;;;;;2.00;1.00;;;;;;;;5082126;27;46158;-70
2023/06/26 10:09:54;;;;;;;;;0.25;0.25;;;;;;;;5087010;27;45390;-67
2023/06/26 10:12:24;;;;;;;;;1.00;1.00;;;;;;;;5090006;27;45354;-69
2023/06/26 10:14:49;;;;;;;;;0.50;0.50;;;;;;;;5095383;27;45443;-69
2023/06/26 10:17:20;;;;;;;;;2.75;1.00;;;;;;;;5096159;27;45472;-69
2023/06/26 10:19:47;;;;;;;;;2.50;1.75;;;;;;;;5087835;27;45455;-69
2023/06/26 10:22:15;;;;;;;;;0.50;0.50;;;;;;;;5088042;27;45645;-69
2023/06/26 10:24:41;;;;;;;;;1.50;0.00;;;;;;;;5080038;27;45448;-69
2023/06/26 10:27:14;;;;;;;;;1.25;1.25;;;;;;;;5092280;27;46205;-67
2023/06/26 10:29:40;;;;;;;;;0.50;0.50;;;;;;;;5082969;27;45445;-69
2023/06/26 10:32:06;;;;;;;;;1.50;0.75;;;;;;;;5083879;27;45384;-69
2023/06/26 10:34:31;;;;;;;;;1.00;1.00;;;;;;;;5089836;27;45455;-67
2023/06/26 10:37:00;;;;;;;;;1.00;1.00;;;;;;;;5078130;27;45505;-70
2023/06/26 10:39:26;;;;;;;;;1.00;1.00;;;;;;;;5090315;27;45402;-70
2023/06/26 10:41:54;;;;;;;;;1.00;1.00;;;;;;;;5082727;27;45565;-69
2023/06/26 10:44:20;;;;;;;;;1.00;1.00;;;;;;;;5088104;27;45432;-70
2023/06/26 10:46:49;;;;;;;;;1.00;1.00;;;;;;;;5073937;27;45627;-69
2023/06/26 10:49:15;;;;;;;;;1.00;1.00;;;;;;;;5079229;27;45346;-69
2023/06/26 10:51:45;;;;;;;;;2.00;1.00;;;;;;;;5088079;27;45237;-69
2023/06/26 10:54:14;;;;;;;;;1.25;1.25;;;;;;;;5059574;28;45478;-69
2023/06/26 10:56:44;;;;;;;;;0.50;0.50;;;;;;;;5091252;27;45566;-68
2023/06/26 10:59:18;;;;;;;;;1.75;1.75;;;;;;;;5078447;27;45466;-69
2023/06/26 11:01:45;;;;;;;;;2.00;1.00;;;;;;;;5086638;27;45570;-68
2023/06/26 11:04:11;;;;;;;;;1.75;1.75;;;;;;;;5087085;27;45500;-68
2023/06/26 11:06:38;;;;;;;;;1.75;1.00;;;;;;;;5061528;28;48317;-69
2023/06/26 11:09:04;;;;;;;;;1.50;1.50;;;;;;;;5091888;27;45374;-68
2023/06/26 11:11:48;;;;;;;;;1.50;1.00;;;;;;;;5081166;27;45485;-68
2023/06/26 11:14:13;;;;;;;;;1.00;0.00;;;;;;;;5065098;28;45530;-68
2023/06/26 11:16:38;;;;;;;;;1.00;1.00;;;;;;;;5072206;27;45403;-68
2023/06/26 11:19:03;;;;;;;;;1.00;1.00;;;;;;;;5078030;27;45441;-68
2023/06/26 11:21:29;;;;;;;;;1.75;1.75;;;;;;;;5088144;27;45354;-68
2023/06/26 11:23:58;;;;;;;;;2.00;2.00;;;;;;;;5083425;27;45444;-68
2023/06/26 11:26:23;;;;;;;;;3.25;1.50;;;;;;;;5088637;27;47183;-67
2023/06/26 11:28:55;;;;;;;;;1.00;1.00;;;;;;;;5077849;27;45417;-67
2023/06/26 11:31:23;;;;;;;;;1.00;1.00;;;;;;;;5086714;27;45363;-69
2023/06/26 11:33:49;;;;;;;;;2.00;1.50;;;;;;;;5085935;27;45509;-68
2023/06/26 11:36:14;;;;;;;;;3.50;1.25;;;;;;;;5077663;27;46238;-67
2023/06/26 11:38:39;;;;;;;;;2.00;2.00;;;;;;;;5075122;27;45406;-68
2023/06/26 11:41:08;;;;;;;;;1.75;1.75;;;;;;;;5077025;27;45461;-68
2023/06/26 11:43:33;;;;;;;;;1.50;1.50;;;;;;;;5080578;27;45532;-67
2023/06/26 11:45:58;;;;;;;;;2.00;2.00;;;;;;;;5084639;27;45533;-68
2023/06/26 11:48:24;;;;;;;;;3.00;2.00;;;;;;;;5088175;27;45370;-68
2023/06/26 11:50:51;;;;;;;;;2.50;2.50;;;;;;;;5077918;27;45473;-68
2023/06/26 11:53:16;;;;;;;;;0.50;0.50;;;;;;;;5106265;27;45494;-68
2023/06/26 11:55:44;;;;;;;;;2.75;2.00;;;;;;;;5082250;27;45427;-68
2023/06/26 11:58:10;;;;;;;;;1.50;1.50;;;;;;;;5082981;27;45372;-69
2023/06/26 12:00:35;;;;;;;;;2.00;2.00;;;;;;;;5086720;27;45438;-67
2023/06/26 12:03:00;;;;;;;;;3.00;2.00;;;;;;;;5088210;27;45392;-67
2023/06/26 12:05:26;;;;;;;;;3.25;2.25;;;;;;;;5088382;27;46009;-67
2023/06/26 12:07:51;;;;;;;;;3.75;3.00;;;;;;;;5083026;27;45352;-67
2023/06/26 12:10:18;;;;;;;;;2.00;2.00;;;;;;;;5081568;27;45363;-67
2023/06/26 12:12:43;;;;;;;;;1.00;1.00;;;;;;;;5070551;27;45650;-69
2023/06/26 12:15:10;;;;;;;;;1.75;1.75;;;;;;;;5074723;27;45684;-67
2023/06/26 12:17:37;;;;;;;;;1.50;1.50;;;;;;;;5062633;27;45307;-68
2023/06/26 12:20:05;;;;;;;;;2.25;1.25;;;;;;;;5099566;27;45413;-68
2023/06/26 12:22:34;;;;;;;;;0.75;0.75;;;;;;;;5088785;27;45514;-68
2023/06/26 12:24:59;;;;;;;;;2.00;0.75;;;;;;;;5077556;27;45436;-67
2023/06/26 12:27:25;;;;;;;;;0.75;0.75;;;;;;;;5082234;27;45508;-68
2023/06/26 12:29:51;;;;;;;;;2.50;1.25;;;;;;;;5091126;27;45334;-67
2023/06/26 12:32:17;;;;;;;;;2.00;2.00;;;;;;;;5083146;27;45423;-68
2023/06/26 12:34:46;;;;;;;;;2.25;2.25;;;;;;;;5093767;27;46093;-68
2023/06/26 12:37:13;;;;;;;;;2.50;1.00;;;;;;;;5064745;27;45413;-67
2023/06/26 12:40:06;;;;;;;;;2.00;2.00;;;;;;;;5089090;27;45334;-68
2023/06/26 12:42:33;;;;;;;;;4.50;1.75;;;;;;;;5065381;28;45392;-68
2023/06/26 12:44:58;;;;;;;;;1.00;1.00;;;;;;;;5094207;27;47152;-68
2023/06/26 12:47:25;;;;;;;;;2.00;2.00;;;;;;;;5064000;27;45356;-69
2023/06/26 12:49:51;;;;;;;;;1.00;1.00;;;;;;;;5098115;27;45362;-69
2023/06/26 12:52:16;;;;;;;;;2.00;2.00;;;;;;;;5085323;27;45406;-69
2023/06/26 12:54:42;;;;;;;;;3.50;3.00;;;;;;;;5080046;27;46487;-68
2023/06/26 12:57:08;;;;;;;;;1.75;1.00;;;;;;;;5094284;27;45443;-69
2023/06/26 12:59:33;;;;;;;;;4.25;3.75;;;;;;;;5083824;27;45461;-69
2023/06/26 13:01:59;;;;;;;;;3.00;3.00;;;;;;;;5087214;27;45391;-68
2023/06/26 13:04:24;;;;;;;;;2.75;2.75;;;;;;;;5090930;27;45479;-68
2023/06/26 13:06:50;;;;;;;;;2.50;2.50;;;;;;;;5080483;27;45507;-68
2023/06/26 13:09:15;;;;;;;;;2.00;2.00;;;;;;;;5093953;27;45741;-68
2023/06/26 13:11:40;;;;;;;;;3.25;2.00;;;;;;;;5084828;27;45499;-68
2023/06/26 13:14:05;;;;;;;;;2.25;2.25;;;;;;;;5085661;27;45441;-69
2023/06/26 13:16:31;;;;;;;;;2.00;2.00;;;;;;;;5075942;27;45426;-68
2023/06/26 13:18:58;;;;;;;;;2.00;1.00;;;;;;;;5078506;27;45412;-68
2023/06/26 13:21:23;;;;;;;;;1.00;1.00;;;;;;;;5092021;27;45491;-68
2023/06/26 13:23:48;;;;;;;;;1.00;1.00;;;;;;;;5085195;27;45913;-67
2023/06/26 13:26:13;;;;;;;;;3.00;2.00;;;;;;;;5101093;27;45425;-67
2023/06/26 13:28:38;;;;;;;;;2.00;2.00;;;;;;;;5092543;27;45383;-68
2023/06/26 13:31:04;;;;;;;;;1.00;1.00;;;;;;;;5079258;27;45330;-67
2023/06/26 13:33:29;;;;;;;;;1.00;1.00;;;;;;;;5090756;27;45341;-68
2023/06/26 13:35:55;;;;;;;;;1.00;1.00;;;;;;;;5068224;27;45429;-68
2023/06/26 13:38:24;;;;;;;;;2.50;2.00;;;;;;;;5083956;27;45245;-68
2023/06/26 13:40:49;;;;;;;;;2.00;2.00;;;;;;;;5093656;27;45426;-68
2023/06/26 13:43:14;;;;;;;;;1.50;1.50;;;;;;;;5079276;27;45445;-68
2023/06/26 13:45:40;;;;;;;;;1.00;1.00;;;;;;;;5086621;27;45525;-68
2023/06/26 13:48:05;;;;;;;;;2.00;2.00;;;;;;;;5076328;27;45572;-68
2023/06/26 13:50:30;;;;;;;;;1.25;1.25;;;;;;;;5076160;28;45598;-68
2023/06/26 13:52:55;;;;;;;;;1.25;1.25;;;;;;;;5077725;27;45524;-68
2023/06/26 13:55:22;;;;;;;;;1.00;1.00;;;;;;;;5082399;27;45559;-68
2023/06/26 13:57:49;;;;;;;;;1.75;1.50;;;;;;;;5082529;27;45421;-68
2023/06/26 14:00:15;;;;;;;;;1.50;1.50;;;;;;;;5076453;27;45330;-68
2023/06/26 14:02:41;;;;;;;;;2.00;0.50;;;;;;;;5092580;27;46363;-68
2023/06/26 14:05:06;;;;;;;;;1.00;1.00;;;;;;;;5078840;27;45459;-68
2023/06/26 14:07:31;;;;;;;;;1.75;1.00;;;;;;;;5087664;27;45312;-67
2023/06/26 14:09:56;;;;;;;;;1.00;1.00;;;;;;;;5102664;27;45648;-69
2023/06/26 14:12:23;;;;;;;;;2.25;1.00;;;;;;;;5089793;27;47003;-67
2023/06/26 14:14:48;;;;;;;;;1.00;1.00;;;;;;;;5079629;27;45440;-67
2023/06/26 14:17:15;;;;;;;;;1.00;1.00;;;;;;;;5092898;27;45310;-69
2023/06/26 14:19:41;;;;;;;;;0.00;0.00;;;;;;;;5084311;27;45450;-71
2023/06/26 14:22:06;;;;;;;;;2.25;1.25;;;;;;;;5085294;27;45555;-68
2023/06/26 14:24:31;;;;;;;;;1.00;1.00;;;;;;;;5090920;27;45386;-69
2023/06/26 14:26:56;;;;;;;;;1.00;1.00;;;;;;;;5079870;27;45395;-69
2023/06/26 14:29:21;;;;;;;;;1.00;1.00;;;;;;;;5091927;27;45416;-69
2023/06/26 14:31:47;;;;;;;;;1.00;1.00;;;;;;;;5083726;27;46608;-69
2023/06/26 14:34:12;;;;;;;;;2.00;2.00;;;;;;;;5083952;27;45397;-69
2023/06/26 14:36:37;;;;;;;;;1.50;1.00;;;;;;;;5091451;27;45390;-69